Time;durP1;ratioP1;P1;durP2;ratioP2;P2;SDS_P1;SDS_P2;PMS_P1;PMS_P2;Temp;Humidity;BMP_temperature;BMP_pressure;BME280_temperature;BME280_humidity;BME280_pressure;Samples;Min_cycle;Max_cycle;Signal;HPM_P1;HPM_P2
2024/01/29 00:02:26;;;;;;;4.20;3.10;;;5.80;99.90;;;;;;5086776;28;20688;-75
2024/01/29 00:04:54;;;;;;;7.40;3.63;;;5.80;99.90;;;;;;5078388;28;20239;-73
2024/01/29 00:07:21;;;;;;;6.30;4.50;;;5.70;99.90;;;;;;5084204;28;20199;-71
2024/01/29 00:09:48;;;;;;;6.30;4.13;;;5.80;99.90;;;;;;5081077;28;20206;-73
2024/01/29 00:12:15;;;;;;;5.80;2.92;;;5.70;99.90;;;;;;5084334;28;20222;-73
2024/01/29 00:14:42;;;;;;;7.10;3.50;;;5.80;99.90;;;;;;5087741;28;20211;-73
2024/01/29 00:17:10;;;;;;;4.78;3.55;;;5.70;99.90;;;;;;5085907;28;20202;-73
2024/01/29 00:19:37;;;;;;;7.03;3.33;;;5.80;99.90;;;;;;5076916;28;20219;-74
2024/01/29 00:22:07;;;;;;;5.85;2.92;;;5.80;99.90;;;;;;5086685;28;20223;-72
2024/01/29 00:24:34;;;;;;;4.75;4.13;;;5.70;99.90;;;;;;5085465;28;20199;-74
2024/01/29 00:27:01;;;;;;;5.38;2.97;;;5.70;99.90;;;;;;5091687;28;20270;-71
2024/01/29 00:29:28;;;;;;;6.47;3.60;;;5.70;99.90;;;;;;5086144;28;20633;-74
2024/01/29 00:31:55;;;;;;;4.72;3.38;;;5.60;99.90;;;;;;5083195;28;20226;-71
2024/01/29 00:34:22;;;;;;;6.32;3.42;;;5.60;99.90;;;;;;5082346;28;20191;-75
2024/01/29 00:36:49;;;;;;;4.32;3.25;;;5.50;99.90;;;;;;5088599;28;20603;-75
2024/01/29 00:39:18;;;;;;;6.90;3.33;;;5.60;99.90;;;;;;5081040;28;20204;-72
2024/01/29 00:41:51;;;;;;;5.25;3.60;;;5.50;99.90;;;;;;5088807;28;20199;-73
2024/01/29 00:44:19;;;;;;;5.78;3.65;;;5.50;99.90;;;;;;5087622;28;20285;-72
2024/01/29 00:46:46;;;;;;;4.90;2.85;;;5.40;99.90;;;;;;5085016;28;20195;-73
2024/01/29 00:49:13;;;;;;;3.05;2.60;;;5.40;99.90;;;;;;5084969;28;20199;-73
2024/01/29 00:51:43;;;;;;;4.28;3.30;;;5.40;99.90;;;;;;5084440;28;20191;-75
2024/01/29 00:54:10;;;;;;;10.30;3.50;;;5.50;99.90;;;;;;5085845;28;20227;-74
2024/01/29 00:56:39;;;;;;;5.50;3.67;;;5.40;99.90;;;;;;5074384;28;20293;-74
2024/01/29 00:59:06;;;;;;;4.50;3.47;;;5.30;99.90;;;;;;5096291;28;20199;-74
2024/01/29 01:01:33;;;;;;;5.88;3.72;;;5.20;99.90;;;;;;5076918;28;20333;-72
2024/01/29 01:04:00;;;;;;;4.05;3.28;;;5.20;99.90;;;;;;5079571;28;20319;-72
2024/01/29 01:06:27;;;;;;;5.28;3.45;;;5.20;99.90;;;;;;5079299;28;20265;-73
2024/01/29 01:08:54;;;;;;;4.00;3.15;;;5.20;99.90;;;;;;5082800;28;20241;-71
2024/01/29 01:11:21;;;;;;;9.48;4.30;;;5.20;99.90;;;;;;5079736;28;20616;-72
2024/01/29 01:13:51;;;;;;;4.15;3.22;;;5.20;99.90;;;;;;5079958;28;20257;-74
2024/01/29 01:16:19;;;;;;;5.82;3.35;;;5.20;99.90;;;;;;5078889;28;20203;-75
2024/01/29 01:18:46;;;;;;;6.65;3.33;;;5.10;99.90;;;;;;5079283;28;20681;-72
2024/01/29 01:21:13;;;;;;;4.43;3.15;;;5.10;99.90;;;;;;5080517;28;20561;-75
2024/01/29 01:23:40;;;;;;;6.18;3.25;;;5.20;99.90;;;;;;5083696;28;20222;-73
2024/01/29 01:26:07;;;;;;;3.88;3.00;;;5.20;99.90;;;;;;5083944;28;20609;-73
2024/01/29 01:28:34;;;;;;;6.90;3.53;;;5.10;99.90;;;;;;5081860;28;20293;-73
2024/01/29 01:31:02;;;;;;;4.88;3.45;;;5.20;99.90;;;;;;5088392;28;20199;-75
2024/01/29 01:33:29;;;;;;;4.78;3.00;;;5.00;99.90;;;;;;5091641;28;20264;-72
2024/01/29 01:35:56;;;;;;;6.85;3.85;;;5.00;99.90;;;;;;5077715;28;20265;-74
2024/01/29 01:38:23;;;;;;;4.57;2.88;;;5.00;99.90;;;;;;5074812;28;20672;-74
2024/01/29 01:40:50;;;;;;;4.57;2.55;;;5.00;99.90;;;;;;5079474;28;20262;-70
2024/01/29 01:43:18;;;;;;;6.50;3.80;;;5.00;99.90;;;;;;5089679;28;20761;-72
2024/01/29 01:45:45;;;;;;;5.57;3.28;;;5.00;99.90;;;;;;5091821;28;20289;-72
2024/01/29 01:48:14;;;;;;;5.07;2.50;;;5.00;99.90;;;;;;5087375;28;20248;-72
2024/01/29 01:50:42;;;;;;;8.30;2.85;;;5.20;99.90;;;;;;5087635;28;20311;-72
2024/01/29 01:53:09;;;;;;;4.75;3.20;;;5.20;99.90;;;;;;5078201;28;20870;-72
2024/01/29 01:55:36;;;;;;;4.60;3.08;;;5.10;99.90;;;;;;5082985;28;20624;-74
2024/01/29 01:58:04;;;;;;;5.18;2.80;;;5.10;99.90;;;;;;5086254;28;20204;-74
2024/01/29 02:00:32;;;;;;;4.03;3.22;;;5.10;99.90;;;;;;5081619;28;20264;-73
2024/01/29 02:02:59;;;;;;;4.85;2.60;;;5.10;99.90;;;;;;5090752;28;20224;-72
2024/01/29 02:05:27;;;;;;;5.03;3.10;;;5.10;99.90;;;;;;5078168;28;20231;-75
2024/01/29 02:07:54;;;;;;;4.60;2.92;;;5.10;99.90;;;;;;5074905;28;20203;-73
2024/01/29 02:10:21;;;;;;;5.05;3.03;;;5.10;99.90;;;;;;5083649;28;20203;-72
2024/01/29 02:12:48;;;;;;;5.65;3.35;;;5.10;99.90;;;;;;5073876;28;20339;-72
2024/01/29 02:15:15;;;;;;;5.63;3.30;;;5.20;99.90;;;;;;5075829;28;20665;-72
2024/01/29 02:17:42;;;;;;;3.75;2.67;;;5.20;99.90;;;;;;5075488;28;20223;-73
2024/01/29 02:20:10;;;;;;;6.63;3.00;;;5.20;99.90;;;;;;5084854;28;20258;-74
2024/01/29 02:22:43;;;;;;;4.85;2.75;;;5.20;99.90;;;;;;5077326;28;20215;-70
2024/01/29 02:25:10;;;;;;;6.07;3.33;;;5.10;99.90;;;;;;5078636;28;20282;-73
2024/01/29 02:27:37;;;;;;;4.80;3.08;;;5.20;99.90;;;;;;5075886;28;20261;-75
2024/01/29 02:30:05;;;;;;;3.63;2.40;;;5.20;99.90;;;;;;5073023;28;20256;-73
2024/01/29 02:32:32;;;;;;;4.32;2.90;;;5.20;99.90;;;;;;5072968;28;20231;-74
2024/01/29 02:34:59;;;;;;;5.90;3.08;;;5.20;99.90;;;;;;5072477;28;20231;-73
2024/01/29 02:37:26;;;;;;;7.07;3.63;;;5.20;99.90;;;;;;5080009;28;20206;-73
2024/01/29 02:39:54;;;;;;;3.45;2.75;;;5.20;99.90;;;;;;5077185;28;20281;-73
2024/01/29 02:42:21;;;;;;;3.75;2.58;;;5.30;99.90;;;;;;5081026;28;20215;-73
2024/01/29 02:44:49;;;;;;;5.15;2.72;;;5.20;99.90;;;;;;5074835;28;20203;-72
2024/01/29 02:47:16;;;;;;;3.95;2.88;;;5.20;99.90;;;;;;5089495;28;20595;-72
2024/01/29 02:49:44;;;;;;;5.35;3.08;;;5.20;99.90;;;;;;5083079;28;20557;-71
2024/01/29 02:52:12;;;;;;;3.45;2.72;;;5.20;99.90;;;;;;5077166;28;20238;-73
2024/01/29 02:54:39;;;;;;;2.85;2.38;;;5.30;99.90;;;;;;5078444;28;20199;-72
2024/01/29 02:57:07;;;;;;;5.47;3.78;;;5.30;99.90;;;;;;5074754;28;20195;-75
2024/01/29 02:59:34;;;;;;;4.90;2.75;;;5.40;99.90;;;;;;5077507;28;20541;-74
2024/01/29 03:02:03;;;;;;;3.97;2.92;;;5.40;99.90;;;;;;5081100;28;20227;-73
2024/01/29 03:04:30;;;;;;;6.00;3.00;;;5.50;99.90;;;;;;5082446;28;20285;-72
2024/01/29 03:06:57;;;;;;;4.90;2.30;;;5.30;99.90;;;;;;5072932;28;20195;-74
2024/01/29 03:09:24;;;;;;;4.90;2.55;;;5.30;99.90;;;;;;5072748;28;20235;-72
2024/01/29 03:11:51;;;;;;;4.72;2.45;;;5.30;99.90;;;;;;5074599;28;20203;-74
2024/01/29 03:14:19;;;;;;;5.75;3.30;;;5.30;99.90;;;;;;5078210;28;20265;-73
2024/01/29 03:16:51;;;;;;;5.85;2.92;;;5.20;99.90;;;;;;5083396;28;20574;-73
2024/01/29 03:19:18;;;;;;;5.45;2.72;;;5.20;99.90;;;;;;5075338;28;20203;-72
2024/01/29 03:21:45;;;;;;;4.80;3.38;;;5.20;99.90;;;;;;5078582;28;20281;-75
2024/01/29 03:24:12;;;;;;;3.28;2.72;;;5.20;99.90;;;;;;5079600;28;20203;-74
2024/01/29 03:26:39;;;;;;;3.72;2.92;;;5.20;99.90;;;;;;5072992;28;20211;-73
2024/01/29 03:29:07;;;;;;;3.25;2.60;;;5.20;99.90;;;;;;5075969;28;20624;-74
2024/01/29 03:31:36;;;;;;;5.40;2.70;;;5.30;99.90;;;;;;5076382;28;20227;-73
2024/01/29 03:34:03;;;;;;;4.18;2.80;;;5.30;99.90;;;;;;5082578;28;20211;-72
2024/01/29 03:36:30;;;;;;;2.45;2.25;;;5.20;99.90;;;;;;5072168;28;20244;-74
2024/01/29 03:38:56;;;;;;;5.20;3.05;;;5.30;99.90;;;;;;5086155;28;20206;-73
2024/01/29 03:41:23;;;;;;;4.65;3.10;;;5.30;99.90;;;;;;5073825;28;20697;-73
2024/01/29 03:43:50;;;;;;;5.55;2.45;;;5.30;99.90;;;;;;5078373;28;20219;-72
2024/01/29 03:46:17;;;;;;;5.45;2.60;;;5.30;99.90;;;;;;5074219;28;20626;-74
2024/01/29 03:48:46;;;;;;;5.13;3.03;;;5.30;99.90;;;;;;5077361;28;20618;-73
2024/01/29 03:51:13;;;;;;;7.70;4.60;;;5.20;99.90;;;;;;5078989;28;20208;-71
2024/01/29 03:53:39;;;;;;;3.25;2.10;;;5.30;99.90;;;;;;5075482;28;20312;-75
2024/01/29 03:56:07;;;;;;;4.57;2.95;;;5.20;99.90;;;;;;5073393;28;20608;-74
2024/01/29 03:58:34;;;;;;;3.75;2.60;;;5.20;99.90;;;;;;5074039;28;20199;-73
2024/01/29 04:01:01;;;;;;;4.78;2.70;;;5.20;99.90;;;;;;5083259;28;20214;-73
2024/01/29 04:03:28;;;;;;;6.78;3.90;;;5.10;99.90;;;;;;5081294;28;20222;-72
2024/01/29 04:05:56;;;;;;;4.13;2.58;;;5.00;99.90;;;;;;5076747;28;20258;-74
2024/01/29 04:08:23;;;;;;;9.38;3.20;;;5.00;99.90;;;;;;5078899;28;20207;-74
2024/01/29 04:10:50;;;;;;;5.80;3.63;;;5.10;99.90;;;;;;5084496;28;20599;-73
2024/01/29 04:13:18;;;;;;;4.90;2.60;;;5.10;99.90;;;;;;5076423;28;20231;-72
2024/01/29 04:15:45;;;;;;;7.40;2.67;;;5.10;99.90;;;;;;5073005;28;20213;-72
2024/01/29 04:18:11;;;;;;;4.80;3.05;;;5.10;99.90;;;;;;5079303;28;20263;-74
2024/01/29 04:20:39;;;;;;;3.53;2.22;;;5.00;99.90;;;;;;5079230;28;20285;-72
2024/01/29 04:23:08;;;;;;;4.70;3.45;;;5.00;99.90;;;;;;5076799;28;20777;-75
2024/01/29 04:25:36;;;;;;;6.68;2.30;;;5.00;99.90;;;;;;5074687;28;20208;-74
2024/01/29 04:28:04;;;;;;;3.40;2.35;;;4.90;99.90;;;;;;5083019;28;20204;-72
2024/01/29 04:30:30;;;;;;;3.75;2.80;;;4.90;99.90;;;;;;5084789;28;20199;-72
2024/01/29 04:32:57;;;;;;;4.95;3.60;;;4.90;99.90;;;;;;5077869;28;20220;-74
2024/01/29 04:35:24;;;;;;;4.40;2.60;;;4.90;99.90;;;;;;5074334;28;20202;-75
2024/01/29 04:37:51;;;;;;;5.60;2.60;;;4.90;99.90;;;;;;5084050;28;20195;-73
2024/01/29 04:40:22;;;;;;;7.00;2.85;;;4.90;99.90;;;;;;5080074;28;20571;-75
2024/01/29 04:42:49;;;;;;;4.05;2.80;;;4.90;99.90;;;;;;5087150;28;20230;-75
2024/01/29 04:45:16;;;;;;;4.53;2.72;;;4.90;99.90;;;;;;5080177;28;20212;-75
2024/01/29 04:47:43;;;;;;;4.40;2.75;;;4.90;99.90;;;;;;5083565;28;20227;-75
2024/01/29 04:50:11;;;;;;;6.95;2.60;;;5.00;99.90;;;;;;5078682;28;20556;-74
2024/01/29 04:52:38;;;;;;;3.83;2.45;;;5.00;99.90;;;;;;5076758;28;20219;-72
2024/01/29 04:55:06;;;;;;;3.33;2.47;;;4.90;99.90;;;;;;5076561;28;20216;-73
2024/01/29 04:57:34;;;;;;;4.25;2.95;;;5.00;99.90;;;;;;5080953;28;20207;-73
2024/01/29 05:00:01;;;;;;;6.82;2.65;;;4.90;99.90;;;;;;5074890;28;20238;-75
2024/01/29 05:02:28;;;;;;;3.53;3.13;;;4.90;99.90;;;;;;5077938;28;20246;-73
2024/01/29 05:04:55;;;;;;;5.65;2.70;;;4.90;99.90;;;;;;5075413;28;20203;-73
2024/01/29 05:07:22;;;;;;;4.65;2.60;;;4.90;99.90;;;;;;5075000;28;20613;-73
2024/01/29 05:09:49;;;;;;;5.65;2.80;;;4.80;99.90;;;;;;5075022;28;20295;-75
2024/01/29 05:12:16;;;;;;;7.30;3.47;;;5.00;99.90;;;;;;5087477;28;20280;-76
2024/01/29 05:14:44;;;;;;;3.70;3.20;;;4.80;99.90;;;;;;5091013;28;20627;-72
2024/01/29 05:17:11;;;;;;;5.35;2.75;;;4.80;99.90;;;;;;5078045;28;20273;-74
2024/01/29 05:19:40;;;;;;;3.20;2.20;;;4.80;99.90;;;;;;5081999;28;20208;-75
2024/01/29 05:22:07;;;;;;;3.88;2.45;;;4.90;99.90;;;;;;5084496;28;20258;-75
2024/01/29 05:24:34;;;;;;;6.50;2.83;;;5.00;99.90;;;;;;5083742;28;20261;-74
2024/01/29 05:27:01;;;;;;;7.15;3.20;;;4.90;99.90;;;;;;5081643;28;20205;-74
2024/01/29 05:29:28;;;;;;;7.45;2.67;;;4.90;99.90;;;;;;5083698;28;20203;-74
2024/01/29 05:31:56;;;;;;;4.40;2.75;;;4.90;99.90;;;;;;5082752;28;20215;-73
2024/01/29 05:34:23;;;;;;;4.45;3.20;;;4.80;99.90;;;;;;5081601;28;20252;-75
2024/01/29 05:36:50;;;;;;;6.55;2.90;;;4.80;99.90;;;;;;5078471;28;20207;-74
2024/01/29 05:39:17;;;;;;;6.40;3.25;;;4.80;99.90;;;;;;5083319;28;20199;-75
2024/01/29 05:41:44;;;;;;;3.75;2.80;;;4.80;99.90;;;;;;5084740;28;20219;-75
2024/01/29 05:44:11;;;;;;;9.20;3.63;;;4.90;99.90;;;;;;5083826;28;20229;-76
2024/01/29 05:46:38;;;;;;;5.78;3.53;;;4.90;99.90;;;;;;5075623;28;20243;-75
2024/01/29 05:49:07;;;;;;;5.70;3.10;;;4.80;99.90;;;;;;5082023;28;20290;-74
2024/01/29 05:51:34;;;;;;;6.25;3.00;;;4.80;99.90;;;;;;5088145;28;20202;-73
2024/01/29 05:54:00;;;;;;;5.88;2.70;;;4.70;99.90;;;;;;5092582;28;20623;-75
2024/01/29 05:56:27;;;;;;;7.78;3.63;;;4.70;99.90;;;;;;5084746;28;20558;-74
2024/01/29 05:58:54;;;;;;;6.70;3.60;;;4.70;99.90;;;;;;5082112;28;20233;-75
2024/01/29 06:01:21;;;;;;;6.75;3.22;;;4.70;99.90;;;;;;5077569;28;20254;-72
2024/01/29 06:03:48;;;;;;;4.90;2.60;;;4.70;99.90;;;;;;5074518;28;20276;-73
2024/01/29 06:06:17;;;;;;;2.95;2.30;;;4.70;99.90;;;;;;5078011;28;20715;-73
2024/01/29 06:08:44;;;;;;;5.63;2.65;;;4.60;99.90;;;;;;5076960;28;20207;-72
2024/01/29 06:11:10;;;;;;;5.63;3.30;;;4.70;99.90;;;;;;5082109;28;20259;-74
2024/01/29 06:13:39;;;;;;;5.47;3.05;;;4.60;99.90;;;;;;5081529;28;20287;-73
2024/01/29 06:16:07;;;;;;;16.58;7.95;;;4.60;99.90;;;;;;5084049;28;20199;-74
2024/01/29 06:18:34;;;;;;;9.93;6.07;;;4.60;99.90;;;;;;5083896;28;20200;-73
2024/01/29 06:21:01;;;;;;;7.43;5.00;;;4.60;99.90;;;;;;5070979;28;20272;-74
2024/01/29 06:23:29;;;;;;;5.40;3.85;;;4.60;99.90;;;;;;5080389;28;20222;-71
2024/01/29 06:25:57;;;;;;;5.55;4.07;;;4.60;99.90;;;;;;5081055;28;20260;-71
2024/01/29 06:28:24;;;;;;;5.40;3.60;;;4.60;99.90;;;;;;5076660;28;20194;-70
2024/01/29 06:30:51;;;;;;;6.40;3.00;;;4.70;99.90;;;;;;5075609;28;20235;-73
2024/01/29 06:33:18;;;;;;;10.35;4.20;;;4.70;99.90;;;;;;5085062;28;20277;-74
2024/01/29 06:35:45;;;;;;;6.63;3.42;;;4.70;99.90;;;;;;5076567;28;20207;-73
2024/01/29 06:38:12;;;;;;;7.07;2.80;;;4.70;99.90;;;;;;5078874;28;20248;-74
2024/01/29 06:40:40;;;;;;;3.70;3.22;;;4.60;99.90;;;;;;5079280;28;20206;-74
2024/01/29 06:43:07;;;;;;;10.50;3.75;;;4.70;99.90;;;;;;5083043;28;20300;-72
2024/01/29 06:45:35;;;;;;;6.18;3.47;;;4.60;99.90;;;;;;5072833;28;20195;-74
2024/01/29 06:48:02;;;;;;;5.40;3.92;;;4.60;99.90;;;;;;5076743;28;20207;-72
2024/01/29 06:50:29;;;;;;;4.45;3.00;;;4.60;99.90;;;;;;5089316;28;20202;-75
2024/01/29 06:52:56;;;;;;;9.48;4.65;;;4.50;99.90;;;;;;5077745;28;20229;-74
2024/01/29 06:55:23;;;;;;;9.15;4.45;;;4.50;99.90;;;;;;5084617;28;20199;-75
2024/01/29 06:57:52;;;;;;;5.80;3.70;;;4.50;99.90;;;;;;5076859;28;20677;-73
2024/01/29 07:00:20;;;;;;;4.00;2.92;;;4.50;99.90;;;;;;5079108;28;20260;-74
2024/01/29 07:02:47;;;;;;;4.28;2.83;;;4.50;99.90;;;;;;5080673;28;20272;-75
2024/01/29 07:05:14;;;;;;;7.18;4.10;;;4.60;99.90;;;;;;5076132;28;20206;-73
2024/01/29 07:07:41;;;;;;;5.03;3.67;;;4.70;99.90;;;;;;5082787;28;20204;-74
2024/01/29 07:10:08;;;;;;;6.05;3.17;;;4.60;99.90;;;;;;5080651;28;20198;-74
2024/01/29 07:12:36;;;;;;;9.60;4.28;;;4.70;99.90;;;;;;5080694;28;20300;-75
2024/01/29 07:15:06;;;;;;;3.05;2.75;;;4.80;99.90;;;;;;5081654;28;20205;-73
2024/01/29 07:17:33;;;;;;;5.90;3.25;;;4.70;99.90;;;;;;5077908;28;20248;-73
2024/01/29 07:20:02;;;;;;;5.18;2.90;;;4.70;99.90;;;;;;5085021;28;20622;-73
2024/01/29 07:22:29;;;;;;;3.53;2.83;;;4.80;99.90;;;;;;5072015;28;20227;-75
2024/01/29 07:24:56;;;;;;;3.88;3.47;;;4.90;99.90;;;;;;5081792;28;20286;-73
2024/01/29 07:27:23;;;;;;;8.18;3.30;;;4.90;99.90;;;;;;5073962;28;20203;-75
2024/01/29 07:29:50;;;;;;;6.75;3.67;;;5.00;99.90;;;;;;5079075;28;20600;-75
2024/01/29 07:32:19;;;;;;;6.65;2.67;;;5.10;99.90;;;;;;5073095;28;20218;-76
2024/01/29 07:34:46;;;;;;;6.28;3.10;;;5.10;99.90;;;;;;5072406;28;20210;-75
2024/01/29 07:37:13;;;;;;;16.13;3.28;;;5.10;99.90;;;;;;5073682;28;20198;-75
2024/01/29 07:39:40;;;;;;;7.88;3.45;;;5.20;99.90;;;;;;5083362;28;20215;-74
2024/01/29 07:42:07;;;;;;;4.55;2.92;;;5.30;99.90;;;;;;5080919;28;20724;-76
2024/01/29 07:44:34;;;;;;;5.93;3.80;;;5.30;99.90;;;;;;5082901;28;20248;-72
2024/01/29 07:47:01;;;;;;;3.95;2.97;;;5.40;99.90;;;;;;5072789;28;20661;-74
2024/01/29 07:49:31;;;;;;;4.05;2.88;;;5.40;99.90;;;;;;5078789;28;20196;-75
2024/01/29 07:51:58;;;;;;;7.93;4.65;;;5.50;99.90;;;;;;5093310;28;20248;-75
2024/01/29 07:54:25;;;;;;;8.73;3.80;;;5.60;99.90;;;;;;5085624;28;20195;-75
2024/01/29 07:56:52;;;;;;;4.80;3.33;;;5.60;99.90;;;;;;5084186;28;20723;-73
2024/01/29 07:59:19;;;;;;;6.95;3.78;;;5.70;99.90;;;;;;5080198;28;20222;-76
2024/01/29 08:01:46;;;;;;;4.45;3.25;;;5.80;99.90;;;;;;5081572;28;20566;-75
2024/01/29 08:04:13;;;;;;;5.60;3.42;;;5.90;99.90;;;;;;5082983;28;20206;-75
2024/01/29 08:06:41;;;;;;;6.05;3.45;;;5.90;99.80;;;;;;5083824;28;20208;-76
2024/01/29 08:09:08;;;;;;;10.35;4.65;;;6.00;99.90;;;;;;5089144;28;20727;-75
2024/01/29 08:11:36;;;;;;;6.30;3.45;;;6.10;99.80;;;;;;5092133;28;20195;-76
2024/01/29 08:14:03;;;;;;;7.70;3.72;;;6.30;99.80;;;;;;5082655;28;20265;-74
2024/01/29 08:16:30;;;;;;;6.40;3.75;;;6.90;99.50;;;;;;5081967;28;20199;-74
2024/01/29 08:18:58;;;;;;;7.50;3.83;;;7.50;98.60;;;;;;5087019;28;20288;-76
2024/01/29 08:21:25;;;;;;;6.75;3.40;;;8.30;98.10;;;;;;5079964;28;20250;-75
2024/01/29 08:23:53;;;;;;;6.03;3.28;;;9.00;96.80;;;;;;5080503;28;20223;-75
2024/01/29 08:26:20;;;;;;;6.30;4.20;;;9.60;95.60;;;;;;5075136;28;20218;-76
2024/01/29 08:28:48;;;;;;;8.45;3.60;;;10.40;93.90;;;;;;5080482;28;20253;-76
2024/01/29 08:31:15;;;;;;;9.32;4.50;;;10.80;91.90;;;;;;5092656;28;20618;-76
2024/01/29 08:33:43;;;;;;;6.95;4.38;;;11.10;91.90;;;;;;5091526;28;20242;-75
2024/01/29 08:36:10;;;;;;;5.57;3.50;;;11.40;91.10;;;;;;5085737;28;20289;-77
2024/01/29 08:38:37;;;;;;;5.72;4.05;;;11.50;91.60;;;;;;5086043;28;20329;-76
2024/01/29 08:41:06;;;;;;;4.57;3.55;;;11.90;90.50;;;;;;5082844;28;20349;-76
2024/01/29 08:43:33;;;;;;;5.07;3.20;;;12.20;90.40;;;;;;5075314;28;20263;-78
2024/01/29 08:46:00;;;;;;;5.07;3.40;;;12.60;89.60;;;;;;5082016;28;20253;-75
2024/01/29 08:48:27;;;;;;;6.25;4.10;;;12.70;88.70;;;;;;5079398;28;20206;-76
2024/01/29 08:50:53;;;;;;;8.57;4.43;;;13.10;87.60;;;;;;5075437;28;20207;-75
2024/01/29 08:53:20;;;;;;;6.88;5.53;;;13.00;86.60;;;;;;5075125;28;20225;-75
2024/01/29 08:55:47;;;;;;;9.73;5.22;;;13.00;86.80;;;;;;5079441;28;20276;-76
2024/01/29 08:58:16;;;;;;;5.22;4.20;;;12.70;87.20;;;;;;5090568;28;20248;-75
2024/01/29 09:00:43;;;;;;;12.98;5.20;;;12.60;87.30;;;;;;5079265;28;20735;-75
2024/01/29 09:03:10;;;;;;;4.80;4.20;;;12.80;88.20;;;;;;5077316;28;20235;-76
2024/01/29 09:05:38;;;;;;;7.20;4.90;;;12.80;87.30;;;;;;5084233;28;20253;-76
2024/01/29 09:08:06;;;;;;;6.38;4.78;;;12.80;86.40;;;;;;5083436;28;20677;-76
2024/01/29 09:10:33;;;;;;;14.25;4.63;;;12.90;86.10;;;;;;5076028;28;20192;-77
2024/01/29 09:13:00;;;;;;;7.30;5.30;;;13.10;86.30;;;;;;5085426;28;20270;-78
2024/01/29 09:15:28;;;;;;;7.80;4.72;;;13.10;86.70;;;;;;5080171;28;20208;-78
2024/01/29 09:17:55;;;;;;;8.00;4.25;;;12.90;86.20;;;;;;5083374;28;20245;-78
2024/01/29 09:20:22;;;;;;;10.15;4.05;;;12.40;86.50;;;;;;5076919;28;20228;-78
2024/01/29 09:22:49;;;;;;;4.95;3.67;;;12.50;87.60;;;;;;5078415;28;20247;-77
2024/01/29 09:25:16;;;;;;;8.60;4.38;;;13.00;86.50;;;;;;5086479;28;20204;-77
2024/01/29 09:27:43;;;;;;;4.80;3.58;;;13.60;86.50;;;;;;5083571;28;20195;-77
2024/01/29 09:30:11;;;;;;;4.40;3.43;;;14.40;84.60;;;;;;5075006;28;20237;-77
2024/01/29 09:32:39;;;;;;;10.10;4.77;;;14.80;83.10;;;;;;5075017;28;20458;-77
2024/01/29 09:35:08;;;;;;;6.33;4.10;;;15.20;81.60;;;;;;5088341;28;20494;-77
2024/01/29 09:37:35;;;;;;;6.30;4.00;;;15.10;81.20;;;;;;5085930;28;20453;-77
2024/01/29 09:40:02;;;;;;;6.43;4.37;;;15.20;80.10;;;;;;5088227;28;20453;-77
2024/01/29 09:42:33;;;;;;;7.50;4.10;;;15.30;81.50;;;;;;5086201;28;20503;-77
2024/01/29 09:45:01;;;;;;;4.07;3.63;;;15.40;79.60;;;;;;5090117;28;20507;-78
2024/01/29 09:47:29;;;;;;;4.10;3.70;;;15.70;79.40;;;;;;5079090;28;20514;-78
2024/01/29 09:49:59;;;;;;;6.80;5.60;;;16.00;78.20;;;;;;5076515;28;20439;-78
2024/01/29 09:52:27;;;;;;;9.20;4.70;;;16.00;78.50;;;;;;5078050;28;20473;-78
2024/01/29 09:54:54;;;;;;;6.90;4.10;;;15.60;78.70;;;;;;5080494;28;20468;-77
2024/01/29 09:57:21;;;;;;;6.47;4.20;;;16.00;78.00;;;;;;5079633;28;20927;-79
2024/01/29 09:59:48;;;;;;;5.30;3.60;;;16.60;77.60;;;;;;5076291;28;20437;-78
2024/01/29 10:02:16;;;;;;;6.77;4.00;;;17.00;77.80;;;;;;5079875;28;20648;-78
2024/01/29 10:04:43;;;;;;;6.80;5.67;;;16.90;75.00;;;;;;5085069;28;20452;-77
2024/01/29 10:07:12;;;;;;;5.37;4.13;;;17.00;76.70;;;;;;5074159;28;20505;-77
2024/01/29 10:09:39;;;;;;;4.43;4.00;;;16.90;75.10;;;;;;5080993;28;20445;-78
2024/01/29 10:12:06;;;;;;;7.80;5.20;;;16.70;75.70;;;;;;5079142;28;20503;-77
2024/01/29 10:14:33;;;;;;;7.13;3.97;;;16.70;77.00;;;;;;5079467;28;20463;-77
2024/01/29 10:17:00;;;;;;;5.47;4.00;;;16.60;75.70;;;;;;5083533;28;20531;-78
2024/01/29 10:19:37;;;;;;;4.10;3.67;;;16.90;76.20;;;;;;5088077;28;20441;-78
2024/01/29 10:22:04;;;;;;;8.63;4.30;;;16.80;76.30;;;;;;5085212;28;20976;-76
2024/01/29 10:24:33;;;;;;;6.00;3.77;;;16.60;74.90;;;;;;5088128;28;20536;-77
2024/01/29 10:27:07;;;;;;;5.87;3.90;;;16.50;76.00;;;;;;5082810;28;20541;-77
2024/01/29 10:29:34;;;;;;;4.93;3.73;;;16.40;76.60;;;;;;5079633;28;20843;-77
2024/01/29 10:32:01;;;;;;;5.83;4.37;;;16.30;76.30;;;;;;5072789;28;20462;-77
2024/01/29 10:34:29;;;;;;;4.70;3.83;;;16.40;76.80;;;;;;5084583;28;20475;-77
2024/01/29 10:36:58;;;;;;;5.80;5.20;;;16.50;76.70;;;;;;5078100;28;20500;-78
2024/01/29 10:39:27;;;;;;;6.40;3.90;;;16.90;78.40;;;;;;5073499;28;20472;-77
2024/01/29 10:41:57;;;;;;;4.43;4.03;;;16.60;77.30;;;;;;5079448;28;20506;-76
2024/01/29 10:44:26;;;;;;;8.00;4.50;;;17.00;76.40;;;;;;5079354;28;20923;-77
2024/01/29 10:46:59;;;;;;;5.83;4.43;;;17.10;75.40;;;;;;5077530;28;20536;-78
2024/01/29 10:49:28;;;;;;;6.60;3.97;;;17.10;75.50;;;;;;5076636;28;20442;-77
2024/01/29 10:51:56;;;;;;;6.77;3.90;;;17.00;75.90;;;;;;5074500;28;20947;-76
2024/01/29 10:54:24;;;;;;;7.30;4.60;;;16.70;75.70;;;;;;5080524;28;20586;-78
2024/01/29 10:56:52;;;;;;;5.20;4.70;;;16.10;76.80;;;;;;5075341;28;20499;-78
2024/01/29 10:59:22;;;;;;;6.35;4.75;;;15.80;78.00;;;;;;5072092;28;20441;-77
2024/01/29 11:01:51;;;;;;;7.68;4.82;;;15.40;78.10;;;;;;5073418;28;20727;-79
2024/01/29 11:04:19;;;;;;;7.85;4.90;;;15.20;79.60;;;;;;5075107;28;20277;-76
2024/01/29 11:06:51;;;;;;;6.78;4.53;;;14.20;80.30;;;;;;5078395;28;20203;-79
2024/01/29 11:09:22;;;;;;;8.00;5.88;;;14.40;82.40;;;;;;5083662;28;20207;-78
2024/01/29 11:11:51;;;;;;;5.53;4.40;;;14.40;82.90;;;;;;5081518;28;20203;-77
2024/01/29 11:14:21;;;;;;;4.20;3.40;;;14.20;83.40;;;;;;5085649;28;20219;-77
2024/01/29 11:16:48;;;;;;;5.40;4.90;;;14.20;84.00;;;;;;5072419;28;20312;-78
2024/01/29 11:19:16;;;;;;;7.20;6.53;;;13.80;84.30;;;;;;5081612;28;20198;-79
2024/01/29 11:21:48;;;;;;;6.72;4.90;;;13.50;85.60;;;;;;5078745;28;20215;-78
2024/01/29 11:24:15;;;;;;;7.22;4.88;;;13.60;86.10;;;;;;5090665;28;20336;-77
2024/01/29 11:26:42;;;;;;;7.63;4.88;;;13.30;86.90;;;;;;5072581;28;20257;-77
2024/01/29 11:29:10;;;;;;;8.00;4.65;;;13.40;87.30;;;;;;5080817;28;20210;-77
2024/01/29 11:31:42;;;;;;;6.00;4.85;;;13.20;87.60;;;;;;5072165;28;20207;-78
2024/01/29 11:34:12;;;;;;;8.20;4.25;;;12.80;88.50;;;;;;5085838;28;20217;-80
2024/01/29 11:36:39;;;;;;;8.43;5.65;;;12.30;89.50;;;;;;5078268;28;20210;-76
2024/01/29 11:39:08;;;;;;;10.13;6.10;;;12.10;90.40;;;;;;5087592;28;20203;-77
2024/01/29 11:41:36;;;;;;;6.00;5.28;;;11.90;90.60;;;;;;5082167;28;20548;-79
2024/01/29 11:44:04;;;;;;;6.53;4.82;;;11.80;91.00;;;;;;5084469;28;20692;-77
2024/01/29 11:46:31;;;;;;;5.75;4.57;;;11.90;91.20;;;;;;5077399;28;20559;-77
2024/01/29 11:49:00;;;;;;;5.20;4.68;;;11.80;91.20;;;;;;5077506;28;20204;-76
2024/01/29 11:51:28;;;;;;;6.93;4.85;;;11.60;91.40;;;;;;5085130;28;20615;-78
2024/01/29 11:53:55;;;;;;;7.97;5.35;;;11.60;91.80;;;;;;5077829;28;20214;-77
2024/01/29 11:56:22;;;;;;;6.60;4.93;;;11.80;91.90;;;;;;5082960;28;20221;-80
2024/01/29 11:59:00;;;;;;;8.48;5.15;;;11.90;91.80;;;;;;5086167;28;20210;-76
2024/01/29 12:01:27;;;;;;;7.20;5.78;;;11.90;91.90;;;;;;5076071;28;20289;-75
2024/01/29 12:03:54;;;;;;;5.85;4.93;;;11.90;92.00;;;;;;5080913;28;20260;-73
2024/01/29 12:06:23;;;;;;;8.13;6.15;;;12.00;92.10;;;;;;5076333;28;20199;-76
2024/01/29 12:08:52;;;;;;;9.13;5.38;;;12.00;92.00;;;;;;5071113;28;20293;-78
2024/01/29 12:11:21;;;;;;;7.63;5.80;;;12.00;92.20;;;;;;5074617;28;20672;-77
2024/01/29 12:13:49;;;;;;;6.20;4.85;;;12.00;92.20;;;;;;5076573;28;20275;-80
2024/01/29 12:16:17;;;;;;;5.97;4.75;;;11.90;92.50;;;;;;5076293;28;20203;-78
2024/01/29 12:18:45;;;;;;;7.22;6.10;;;11.80;92.60;;;;;;5078305;28;20348;-78
2024/01/29 12:21:13;;;;;;;6.30;5.60;;;11.80;92.80;;;;;;5088035;28;20195;-78
2024/01/29 12:23:42;;;;;;;6.63;5.40;;;11.90;93.00;;;;;;5084108;28;20222;-76
2024/01/29 12:26:11;;;;;;;6.32;5.57;;;12.00;93.00;;;;;;5079367;28;20263;-77
2024/01/29 12:28:40;;;;;;;9.93;6.22;;;11.90;93.00;;;;;;5081669;28;20265;-76
2024/01/29 12:31:07;;;;;;;7.55;5.65;;;11.90;93.10;;;;;;5073805;28;20200;-78
2024/01/29 12:33:36;;;;;;;8.55;5.25;;;11.70;93.40;;;;;;5084027;28;20226;-79
2024/01/29 12:36:13;;;;;;;8.32;6.38;;;11.70;93.80;;;;;;5076440;28;20257;-77
2024/01/29 12:38:41;;;;;;;9.00;5.88;;;11.70;93.90;;;;;;5074979;28;20199;-76
2024/01/29 12:41:08;;;;;;;13.13;6.80;;;11.80;94.00;;;;;;5076123;28;20265;-77
2024/01/29 12:43:36;;;;;;;10.52;6.05;;;11.80;94.00;;;;;;5085585;28;20581;-78
2024/01/29 12:46:05;;;;;;;7.70;6.18;;;11.70;94.10;;;;;;5082764;28;20214;-78
2024/01/29 12:48:32;;;;;;;7.68;5.90;;;11.70;94.30;;;;;;5077915;28;20277;-79
2024/01/29 12:50:59;;;;;;;10.90;6.28;;;11.70;94.50;;;;;;5077253;28;20207;-76
2024/01/29 12:53:26;;;;;;;7.35;5.47;;;11.80;94.60;;;;;;5076388;28;20265;-78
2024/01/29 12:55:55;;;;;;;6.32;5.72;;;11.80;94.60;;;;;;5085340;28;20199;-77